createdAt,value
2016-11-18T00:00:58.260Z,0
2016-11-18T00:01:39.984Z,0
2016-11-18T00:04:16.304Z,0
2016-11-18T00:04:57.948Z,0
2016-11-18T00:06:58.026Z,0
2016-11-18T00:07:39.768Z,0
2016-11-18T00:08:21.569Z,0
2016-11-18T00:09:03.298Z,0
2016-11-18T00:09:45.036Z,0
2016-11-18T00:12:00.457Z,0
2016-11-18T00:16:26.129Z,0
2016-11-18T00:17:07.808Z,0
2016-11-18T00:17:49.473Z,0
2016-11-18T00:20:04.768Z,0
2016-11-18T00:20:46.427Z,0
2016-11-18T00:21:28.223Z,0
2016-11-18T00:22:10.004Z,0
2016-11-18T00:22:51.760Z,0
2016-11-18T00:23:33.452Z,0
2016-11-18T00:24:15.203Z,0
2016-11-18T00:24:56.713Z,0
2016-11-18T00:25:38.435Z,0
2016-11-18T00:26:20.107Z,0
2016-11-18T00:28:20.236Z,0
2016-11-18T00:29:01.902Z,0
2016-11-18T00:29:43.459Z,0
2016-11-18T00:30:25.226Z,0
2016-11-18T00:32:40.622Z,0
2016-11-18T00:34:55.903Z,0
2016-11-18T00:35:37.462Z,0
2016-11-18T00:36:19.140Z,0
2016-11-18T00:37:00.789Z,0
2016-11-18T00:39:00.810Z,0
2016-11-18T00:39:42.494Z,0
2016-11-18T00:40:24.072Z,0
2016-11-18T00:41:05.789Z,0
2016-11-18T00:41:47.547Z,0
2016-11-18T00:42:29.066Z,0
2016-11-18T00:43:10.565Z,0
2016-11-18T00:43:52.088Z,0
2016-11-18T00:44:33.776Z,0
2016-11-18T00:45:15.496Z,0
2016-11-18T00:45:57.188Z,0
2016-11-18T00:46:38.838Z,0
2016-11-18T00:50:28.379Z,0
2016-11-18T00:51:09.997Z,0
2016-11-18T00:53:46.357Z,0
2016-11-18T00:54:28.009Z,0
2016-11-18T00:55:09.644Z,0
2016-11-18T00:55:51.405Z,0
2016-11-18T00:56:33.138Z,0
2016-11-18T00:57:14.859Z,0
2016-11-18T00:57:56.580Z,0
2016-11-18T00:58:38.319Z,0
2016-11-18T00:59:20.005Z,0
2016-11-18T01:00:01.709Z,0
2016-11-18T01:00:43.435Z,0
2016-11-18T01:01:25.042Z,0
2016-11-18T01:03:25.091Z,0
2016-11-18T01:04:06.858Z,0
2016-11-18T01:04:48.612Z,0
2016-11-18T01:05:30.142Z,0
2016-11-18T01:06:11.895Z,0
2016-11-18T01:06:53.644Z,0
2016-11-18T01:07:35.314Z,0
2016-11-18T01:08:17.093Z,0
2016-11-18T01:08:58.857Z,0
2016-11-18T01:09:40.597Z,0
2016-11-18T01:10:22.334Z,0
2016-11-18T01:11:03.902Z,0
2016-11-18T01:11:45.540Z,0
2016-11-18T01:12:27.212Z,0
2016-11-18T01:13:08.980Z,0
2016-11-18T01:13:50.715Z,0
2016-11-18T01:14:32.287Z,0
2016-11-18T01:17:03.474Z,0
2016-11-18T01:17:45.020Z,0
2016-11-18T01:18:26.733Z,0
2016-11-18T01:22:16.320Z,0
2016-11-18T01:22:58.082Z,0
2016-11-18T01:23:39.751Z,0
2016-11-18T01:24:21.541Z,0
2016-11-18T01:26:37.041Z,0
2016-11-18T01:27:18.748Z,0
2016-11-18T01:29:34.095Z,0
2016-11-18T01:30:15.805Z,0
2016-11-18T01:30:57.497Z,0
2016-11-18T01:31:39.279Z,0
2016-11-18T01:32:20.951Z,0
2016-11-18T01:33:02.595Z,0
2016-11-18T01:33:44.151Z,0
2016-11-18T01:34:25.723Z,0
2016-11-18T01:36:41.017Z,0
2016-11-18T01:38:41.079Z,0
2016-11-18T01:39:22.839Z,0
2016-11-18T01:40:04.604Z,0
2016-11-18T01:40:46.203Z,0
2016-11-18T01:43:01.605Z,0
2016-11-18T01:43:43.309Z,0
2016-11-18T01:44:25.009Z,0
2016-11-18T01:45:06.769Z,0
2016-11-18T01:45:48.429Z,0
2016-11-18T01:46:30.143Z,0
2016-11-18T01:47:11.862Z,0
2016-11-18T01:47:53.364Z,0
2016-11-18T01:48:34.573Z,0
2016-11-18T01:49:15.873Z,0
2016-11-18T01:49:57.565Z,0
2016-11-18T01:50:38.540Z,0
2016-11-18T01:51:20.270Z,0
2016-11-18T01:52:01.804Z,0
2016-11-18T01:56:27.380Z,0
2016-11-18T01:57:09.135Z,0
2016-11-18T01:59:45.618Z,0
2016-11-18T02:00:27.148Z,0
2016-11-18T02:02:26.306Z,0
2016-11-18T02:03:06.819Z,0
2016-11-18T02:03:47.360Z,0
2016-11-18T02:04:27.888Z,0
2016-11-18T02:05:08.433Z,0
2016-11-18T02:05:48.977Z,0
2016-11-18T02:06:29.501Z,0
2016-11-18T02:07:10.027Z,0
2016-11-18T02:07:50.564Z,0
2016-11-18T02:08:31.101Z,0
2016-11-18T02:09:11.645Z,0
2016-11-18T02:09:52.189Z,0
2016-11-18T02:10:32.742Z,0
2016-11-18T02:11:13.311Z,0
2016-11-18T02:11:53.849Z,0
2016-11-18T02:12:34.391Z,0
2016-11-18T02:13:14.915Z,0
2016-11-18T02:13:55.472Z,0
2016-11-18T02:14:35.984Z,0
2016-11-18T02:15:16.522Z,0
2016-11-18T02:15:57.057Z,0
2016-11-18T02:16:37.596Z,0
2016-11-18T02:17:18.138Z,0
2016-11-18T02:17:58.673Z,0
2016-11-18T02:18:39.221Z,0
2016-11-18T02:19:19.755Z,0
2016-11-18T02:20:00.311Z,0
2016-11-18T02:20:40.854Z,0
2016-11-18T02:21:21.391Z,0
2016-11-18T02:22:01.913Z,0
2016-11-18T02:22:42.458Z,0
2016-11-18T02:23:22.999Z,0
2016-11-18T02:24:03.549Z,0
2016-11-18T02:24:44.091Z,0
2016-11-18T02:25:24.631Z,0
2016-11-18T02:26:05.171Z,0
2016-11-18T02:26:45.711Z,0
2016-11-18T02:27:26.236Z,0
2016-11-18T02:28:06.771Z,0
2016-11-18T02:28:47.311Z,0
2016-11-18T02:29:27.854Z,0
2016-11-18T02:30:08.398Z,0
2016-11-18T02:30:48.935Z,0
2016-11-18T02:31:29.475Z,0
2016-11-18T02:32:10.020Z,0
2016-11-18T02:32:50.551Z,0
2016-11-18T02:33:31.092Z,0
2016-11-18T02:34:11.618Z,0
2016-11-18T02:34:52.162Z,0
2016-11-18T02:35:32.715Z,0
2016-11-18T02:36:13.258Z,0
2016-11-18T02:36:53.799Z,0
2016-11-18T02:37:34.338Z,0
2016-11-18T02:38:14.860Z,0
2016-11-18T02:38:55.404Z,0
2016-11-18T02:39:35.937Z,0
2016-11-18T02:40:16.474Z,0
2016-11-18T02:40:57.023Z,0
2016-11-18T02:41:37.580Z,0
2016-11-18T02:42:18.124Z,0
2016-11-18T02:42:58.667Z,0
2016-11-18T02:43:39.211Z,0
2016-11-18T02:44:19.760Z,0
2016-11-18T02:45:00.289Z,0
2016-11-18T02:45:40.822Z,0
2016-11-18T02:46:21.362Z,0
2016-11-18T02:47:01.884Z,0
2016-11-18T02:47:42.486Z,0
2016-11-18T02:48:23.014Z,0
2016-11-18T02:49:03.550Z,0
2016-11-18T02:49:44.084Z,0
2016-11-18T02:50:24.624Z,0
2016-11-18T02:51:05.159Z,0
2016-11-18T02:51:45.700Z,0
2016-11-18T02:52:26.240Z,0
2016-11-18T02:53:06.770Z,0
2016-11-18T02:53:47.310Z,0
2016-11-18T02:54:27.851Z,0
2016-11-18T02:55:08.388Z,0
2016-11-18T02:55:48.928Z,0
2016-11-18T02:56:29.467Z,0
2016-11-18T02:57:10.003Z,0
2016-11-18T02:57:50.524Z,0
2016-11-18T02:58:31.071Z,0
2016-11-18T02:59:11.594Z,0
2016-11-18T02:59:52.130Z,0
2016-11-18T03:00:32.671Z,0
2016-11-18T03:01:13.206Z,0
2016-11-18T03:01:53.740Z,0
2016-11-18T03:02:34.277Z,0
2016-11-18T03:03:14.824Z,0
2016-11-18T03:03:55.354Z,0
2016-11-18T03:04:35.896Z,0
2016-11-18T03:05:16.437Z,0
2016-11-18T03:05:56.976Z,0
2016-11-18T03:06:37.514Z,0
2016-11-18T03:07:18.060Z,0
2016-11-18T03:07:58.610Z,0
2016-11-18T03:08:39.144Z,0
2016-11-18T03:09:19.670Z,0
2016-11-18T03:10:00.204Z,0
2016-11-18T03:10:40.748Z,0
2016-11-18T03:11:21.293Z,0
2016-11-18T03:12:01.837Z,0
2016-11-18T03:12:42.381Z,0
2016-11-18T03:13:22.922Z,0
2016-11-18T03:14:03.467Z,0
2016-11-18T03:14:44.006Z,0
2016-11-18T03:15:24.547Z,0
2016-11-18T03:16:05.089Z,0
2016-11-18T03:16:45.627Z,0
2016-11-18T03:17:26.166Z,0
2016-11-18T03:18:06.686Z,0
2016-11-18T03:18:47.231Z,0
2016-11-18T03:19:27.783Z,0
2016-11-18T03:20:08.309Z,0
2016-11-18T03:20:48.838Z,0
2016-11-18T03:21:29.413Z,0
2016-11-18T03:22:09.964Z,0
2016-11-18T03:22:50.496Z,0
2016-11-18T03:23:31.024Z,0
2016-11-18T03:24:11.564Z,0
2016-11-18T03:24:52.102Z,0
2016-11-18T03:25:32.641Z,0
2016-11-18T03:26:13.169Z,0
2016-11-18T03:26:53.723Z,0
2016-11-18T03:27:34.260Z,0
2016-11-18T03:28:14.797Z,0
2016-11-18T03:28:55.338Z,0
2016-11-18T03:29:35.880Z,0
2016-11-18T03:30:16.419Z,0
2016-11-18T03:30:56.959Z,0
2016-11-18T03:31:37.500Z,0
2016-11-18T03:32:18.051Z,0
2016-11-18T03:32:58.607Z,0
2016-11-18T03:33:39.152Z,0
2016-11-18T03:34:19.700Z,0
2016-11-18T03:35:00.240Z,0
2016-11-18T03:35:40.788Z,0
2016-11-18T03:36:21.328Z,0
2016-11-18T03:37:01.878Z,0
2016-11-18T03:37:42.425Z,0
2016-11-18T03:38:22.960Z,0
2016-11-18T03:39:03.501Z,0
2016-11-18T03:39:44.036Z,0
2016-11-18T03:40:24.575Z,0
2016-11-18T03:41:05.117Z,0
2016-11-18T03:41:45.654Z,0
2016-11-18T03:42:26.195Z,0
2016-11-18T03:43:06.734Z,0
2016-11-18T03:43:47.274Z,0
2016-11-18T03:44:27.825Z,0
2016-11-18T03:45:08.363Z,0
2016-11-18T03:45:48.889Z,0
2016-11-18T03:46:29.433Z,0
2016-11-18T03:47:09.972Z,0
2016-11-18T03:47:50.522Z,0
2016-11-18T03:48:31.067Z,0
2016-11-18T03:49:11.612Z,0
2016-11-18T03:49:52.157Z,0
2016-11-18T03:50:32.701Z,0
2016-11-18T03:51:13.241Z,0
2016-11-18T03:51:53.773Z,0
2016-11-18T03:52:34.333Z,0
2016-11-18T03:53:14.875Z,0
2016-11-18T03:53:55.418Z,0
2016-11-18T03:54:35.955Z,0
2016-11-18T03:55:16.493Z,0
2016-11-18T03:55:57.043Z,0
2016-11-18T03:56:37.584Z,0
2016-11-18T03:57:18.132Z,0
2016-11-18T03:57:58.683Z,0
2016-11-18T03:58:39.224Z,0
2016-11-18T03:59:19.772Z,0
2016-11-18T04:00:00.317Z,0
2016-11-18T04:00:40.860Z,0
2016-11-18T04:01:21.399Z,0
2016-11-18T04:02:01.943Z,0
2016-11-18T04:02:42.481Z,0
2016-11-18T04:03:23.020Z,0
2016-11-18T04:04:03.552Z,0
2016-11-18T04:04:44.096Z,0
2016-11-18T04:05:24.636Z,0
2016-11-18T04:06:05.176Z,0
2016-11-18T04:06:45.716Z,0
2016-11-18T04:07:26.255Z,0
2016-11-18T04:08:06.790Z,0
2016-11-18T04:08:47.364Z,0
2016-11-18T04:09:27.900Z,0
2016-11-18T04:10:08.420Z,0
2016-11-18T04:10:48.979Z,0
2016-11-18T04:11:29.516Z,0
2016-11-18T04:12:10.057Z,0
2016-11-18T04:12:50.598Z,0
2016-11-18T04:13:31.127Z,0
2016-11-18T04:14:11.690Z,0
2016-11-18T04:14:52.238Z,0
2016-11-18T04:15:32.764Z,0
2016-11-18T04:16:13.329Z,0
2016-11-18T04:16:53.875Z,0
2016-11-18T04:17:34.414Z,0
2016-11-18T04:18:14.957Z,0
2016-11-18T04:18:55.494Z,0
2016-11-18T04:19:36.032Z,0
2016-11-18T04:20:16.573Z,0
2016-11-18T04:20:57.115Z,0
2016-11-18T04:21:37.663Z,0
2016-11-18T04:22:18.214Z,0
2016-11-18T04:22:58.754Z,0
2016-11-18T04:23:39.308Z,0
2016-11-18T04:24:19.848Z,0
2016-11-18T04:25:00.380Z,0
2016-11-18T04:25:40.924Z,0
2016-11-18T04:26:21.463Z,0
2016-11-18T04:27:02.002Z,0
2016-11-18T04:27:42.553Z,0
2016-11-18T04:28:23.075Z,0
2016-11-18T04:29:03.615Z,0
2016-11-18T04:29:44.163Z,0
2016-11-18T04:30:24.711Z,0
2016-11-18T04:31:05.255Z,0
2016-11-18T04:31:45.797Z,0
2016-11-18T04:32:26.339Z,0
2016-11-18T04:33:06.878Z,0
2016-11-18T04:33:47.417Z,0
2016-11-18T04:34:27.958Z,0
2016-11-18T04:35:08.498Z,0
2016-11-18T04:35:49.033Z,0
2016-11-18T04:36:29.570Z,0
2016-11-18T04:37:10.111Z,0
2016-11-18T04:37:50.657Z,0
2016-11-18T04:38:31.198Z,0
2016-11-18T04:39:11.793Z,0
2016-11-18T04:39:52.330Z,0
2016-11-18T04:40:32.878Z,0
2016-11-18T04:41:13.426Z,0
2016-11-18T04:41:53.975Z,0
2016-11-18T04:42:34.524Z,0
2016-11-18T04:43:15.063Z,0
2016-11-18T04:43:55.600Z,0
2016-11-18T04:44:36.142Z,0
2016-11-18T04:45:16.697Z,0
2016-11-18T04:45:57.239Z,0
2016-11-18T04:48:26.738Z,0
2016-11-18T04:49:07.339Z,0
2016-11-18T04:49:47.890Z,0
2016-11-18T04:50:28.426Z,0
2016-11-18T04:51:09.002Z,0
2016-11-18T04:51:49.596Z,0
2016-11-18T04:52:30.194Z,0
2016-11-18T04:53:10.732Z,0
2016-11-18T04:53:51.270Z,0
2016-11-18T04:54:31.810Z,0
2016-11-18T04:55:12.354Z,0
2016-11-18T04:55:52.889Z,0
2016-11-18T04:56:33.432Z,0
2016-11-18T04:57:13.972Z,0
2016-11-18T04:57:54.508Z,0
2016-11-18T04:58:35.050Z,0
2016-11-18T04:59:15.590Z,0
2016-11-18T04:59:56.126Z,0
2016-11-18T05:00:36.663Z,0
2016-11-18T05:01:17.194Z,0
2016-11-18T05:01:57.733Z,0
2016-11-18T05:02:38.274Z,0
2016-11-18T05:03:18.810Z,0
2016-11-18T05:03:59.354Z,0
2016-11-18T05:04:39.902Z,0
2016-11-18T05:05:20.445Z,0
2016-11-18T05:06:01.034Z,0
2016-11-18T05:06:41.584Z,0
2016-11-18T05:07:22.122Z,0
2016-11-18T05:08:02.662Z,0
2016-11-18T05:08:43.208Z,0
2016-11-18T05:09:23.747Z,0
2016-11-18T05:10:04.290Z,0
2016-11-18T05:10:44.825Z,0
2016-11-18T05:11:25.356Z,0
2016-11-18T05:12:05.903Z,0
2016-11-18T05:12:46.438Z,0
2016-11-18T05:13:26.976Z,0
2016-11-18T05:14:07.517Z,0
2016-11-18T05:14:48.065Z,0
2016-11-18T05:15:28.605Z,0
2016-11-18T05:16:09.148Z,0
2016-11-18T05:16:49.685Z,0
2016-11-18T05:17:30.224Z,0
2016-11-18T05:18:10.767Z,0
2016-11-18T05:18:51.309Z,0
2016-11-18T05:19:31.839Z,0
2016-11-18T05:20:12.381Z,0
2016-11-18T05:20:52.918Z,0
2016-11-18T05:21:33.458Z,0
2016-11-18T05:22:13.995Z,0
2016-11-18T05:22:54.528Z,0
2016-11-18T05:23:35.065Z,0
2016-11-18T05:24:15.607Z,0
2016-11-18T05:24:56.143Z,0
2016-11-18T05:25:36.685Z,0
2016-11-18T05:26:17.225Z,0
2016-11-18T05:26:57.766Z,0
2016-11-18T05:27:38.305Z,0
2016-11-18T05:28:18.834Z,0
2016-11-18T05:28:59.367Z,0
2016-11-18T05:29:39.909Z,0
2016-11-18T05:30:20.441Z,0
2016-11-18T05:31:00.984Z,0
2016-11-18T05:31:41.523Z,0
2016-11-18T05:32:22.066Z,0
2016-11-18T05:33:02.607Z,0
2016-11-18T05:33:43.145Z,0
2016-11-18T05:34:23.680Z,0
2016-11-18T05:35:04.223Z,0
2016-11-18T05:35:44.752Z,0
2016-11-18T05:36:25.293Z,0
2016-11-18T05:37:05.830Z,0
2016-11-18T05:37:46.373Z,0
2016-11-18T05:38:26.916Z,0
2016-11-18T05:39:07.450Z,0
2016-11-18T05:39:47.989Z,0
2016-11-18T05:40:28.527Z,0
2016-11-18T05:41:09.059Z,0
2016-11-18T05:41:49.595Z,0
2016-11-18T05:42:30.266Z,0
2016-11-18T05:43:10.895Z,0
2016-11-18T05:43:51.478Z,0
2016-11-18T05:44:32.010Z,0
2016-11-18T05:45:12.553Z,0
2016-11-18T05:45:53.095Z,0
2016-11-18T05:46:33.632Z,0
2016-11-18T05:47:14.173Z,0
2016-11-18T05:47:54.713Z,0
2016-11-18T05:48:35.245Z,0
2016-11-18T05:49:15.785Z,0
2016-11-18T05:49:56.321Z,0
2016-11-18T05:50:36.860Z,0
2016-11-18T05:51:17.396Z,0
2016-11-18T05:51:57.938Z,0
2016-11-18T05:52:38.478Z,0
2016-11-18T05:53:19.017Z,0
2016-11-18T05:53:59.556Z,0
2016-11-18T05:54:40.096Z,0
2016-11-18T05:55:20.636Z,0
2016-11-18T05:56:01.180Z,0
2016-11-18T05:56:41.714Z,0
2016-11-18T05:57:22.255Z,0
2016-11-18T05:58:02.794Z,0
2016-11-18T05:58:43.339Z,0
2016-11-18T05:59:23.888Z,0
2016-11-18T06:00:04.431Z,0
2016-11-18T06:02:18.715Z,0
2016-11-18T06:02:59.277Z,0
2016-11-18T06:03:39.800Z,0
2016-11-18T06:04:20.331Z,0
2016-11-18T06:05:00.872Z,0
2016-11-18T06:05:41.415Z,0
2016-11-18T06:06:21.955Z,0
2016-11-18T06:07:02.482Z,0
2016-11-18T06:07:43.020Z,0
2016-11-18T06:08:23.563Z,0
2016-11-18T06:09:04.102Z,0
2016-11-18T06:09:44.641Z,0
2016-11-18T06:10:25.179Z,0
2016-11-18T06:11:05.743Z,0
2016-11-18T06:11:46.279Z,0
2016-11-18T06:12:26.809Z,0
2016-11-18T06:13:07.343Z,0
2016-11-18T06:13:47.879Z,0
2016-11-18T06:14:28.419Z,0
2016-11-18T06:15:08.948Z,0
2016-11-18T06:15:49.493Z,0
2016-11-18T06:16:30.033Z,0
2016-11-18T06:17:10.580Z,0
2016-11-18T06:17:51.125Z,0
2016-11-18T06:18:31.645Z,0
2016-11-18T06:19:12.183Z,0
2016-11-18T06:19:52.726Z,0
2016-11-18T06:20:33.262Z,0
2016-11-18T06:21:13.802Z,0
2016-11-18T06:21:54.402Z,0
2016-11-18T06:22:34.912Z,0
2016-11-18T06:23:15.477Z,0
2016-11-18T06:23:56.017Z,0
2016-11-18T06:24:36.554Z,0
2016-11-18T06:25:17.096Z,0
2016-11-18T06:25:57.636Z,0
2016-11-18T06:26:38.174Z,0
2016-11-18T06:27:18.716Z,0
2016-11-18T06:27:59.258Z,0
2016-11-18T06:28:39.794Z,0
2016-11-18T06:29:20.335Z,0
2016-11-18T06:30:00.875Z,0
2016-11-18T06:30:41.409Z,0
2016-11-18T06:31:21.942Z,0
2016-11-18T06:32:02.477Z,0
2016-11-18T06:32:43.016Z,0
2016-11-18T06:33:23.552Z,0
2016-11-18T06:34:04.093Z,0
2016-11-18T06:34:44.628Z,0
2016-11-18T06:35:25.157Z,0
2016-11-18T06:36:05.703Z,0
2016-11-18T06:36:46.241Z,0
2016-11-18T06:37:26.782Z,0
2016-11-18T06:38:07.308Z,0
2016-11-18T06:38:47.856Z,0
2016-11-18T06:39:28.396Z,0
2016-11-18T06:40:08.935Z,0
2016-11-18T06:40:49.484Z,0
2016-11-18T06:41:30.019Z,4
2016-11-18T06:42:10.571Z,4
2016-11-18T06:42:51.100Z,4
2016-11-18T06:43:31.638Z,4
2016-11-18T06:44:12.168Z,4
2016-11-18T06:44:52.711Z,8
2016-11-18T06:45:33.253Z,8
2016-11-18T06:46:13.802Z,12
2016-11-18T06:46:54.353Z,16
2016-11-18T06:47:34.893Z,16
2016-11-18T06:48:15.441Z,16
2016-11-18T06:48:55.980Z,24
2016-11-18T06:49:36.535Z,24
2016-11-18T06:50:17.155Z,32
2016-11-18T06:50:57.724Z,36
2016-11-18T06:51:38.262Z,40
2016-11-18T06:52:18.798Z,44
2016-11-18T06:52:59.341Z,48
2016-11-18T06:53:39.888Z,52
2016-11-18T06:54:20.431Z,56
2016-11-18T06:55:00.982Z,64
2016-11-18T06:55:41.525Z,64
2016-11-18T06:56:22.080Z,68
2016-11-18T06:57:02.604Z,72
2016-11-18T06:57:43.141Z,72
2016-11-18T06:58:23.680Z,76
2016-11-18T06:59:04.209Z,76
2016-11-18T06:59:44.744Z,76
2016-11-18T07:00:25.280Z,68
2016-11-18T07:01:05.820Z,60
2016-11-18T07:01:46.364Z,60
2016-11-18T07:02:26.905Z,60
2016-11-18T07:03:07.448Z,60
2016-11-18T07:03:47.982Z,52
2016-11-18T07:04:28.525Z,52
2016-11-18T07:05:09.063Z,60
2016-11-18T07:05:49.601Z,76
2016-11-18T07:06:30.141Z,88
2016-11-18T07:07:10.685Z,88
2016-11-18T07:07:51.226Z,96
2016-11-18T07:08:31.765Z,92
2016-11-18T07:09:12.302Z,80
2016-11-18T07:09:52.839Z,76
2016-11-18T07:10:33.380Z,68
2016-11-18T07:11:13.910Z,68
2016-11-18T07:11:54.442Z,72
2016-11-18T07:12:34.981Z,76
2016-11-18T07:13:15.525Z,72
2016-11-18T07:13:56.044Z,64
2016-11-18T07:14:36.569Z,56
2016-11-18T07:15:17.109Z,60
2016-11-18T07:15:57.641Z,72
2016-11-18T07:16:38.183Z,92
2016-11-18T07:17:18.724Z,112
2016-11-18T07:17:59.256Z,132
2016-11-18T07:18:39.795Z,140
2016-11-18T07:19:20.335Z,140
2016-11-18T07:20:00.874Z,144
2016-11-18T07:20:41.407Z,136
2016-11-18T07:21:22.010Z,136
2016-11-18T07:22:02.548Z,124
2016-11-18T07:22:43.079Z,116
2016-11-18T07:23:23.620Z,108
2016-11-18T07:24:04.160Z,112
2016-11-18T07:24:44.699Z,112
2016-11-18T07:25:25.244Z,104
2016-11-18T07:26:05.790Z,104
2016-11-18T07:26:46.331Z,116
2016-11-18T07:27:26.857Z,156
2016-11-18T07:28:07.405Z,196
2016-11-18T07:28:47.918Z,220
2016-11-18T07:29:28.454Z,212
2016-11-18T07:30:08.993Z,220
2016-11-18T07:30:49.532Z,224
2016-11-18T07:31:30.275Z,240
2016-11-18T07:32:10.861Z,280
2016-11-18T07:32:51.402Z,344
2016-11-18T07:33:31.964Z,424
2016-11-18T07:34:12.503Z,476
2016-11-18T07:34:53.027Z,480
2016-11-18T07:35:33.565Z,456
2016-11-18T07:36:14.095Z,416
2016-11-18T07:36:54.635Z,432
2016-11-18T07:37:35.176Z,468
2016-11-18T07:38:15.715Z,504
2016-11-18T07:38:56.297Z,548
2016-11-18T07:39:36.835Z,708
2016-11-18T07:40:17.372Z,740
2016-11-18T07:40:57.907Z,928
2016-11-18T07:41:38.501Z,1184
2016-11-18T07:42:19.034Z,1296
2016-11-18T07:42:59.574Z,1452
2016-11-18T07:43:40.113Z,1368
2016-11-18T07:44:20.651Z,1256
2016-11-18T07:45:01.196Z,1264
2016-11-18T07:45:41.731Z,1260
2016-11-18T07:46:22.267Z,1084
2016-11-18T07:47:02.804Z,1000
2016-11-18T07:47:43.337Z,944
2016-11-18T07:48:23.877Z,852
2016-11-18T07:49:04.414Z,712
2016-11-18T07:49:44.984Z,680
2016-11-18T07:50:25.505Z,672
2016-11-18T07:51:06.044Z,692
2016-11-18T07:51:46.582Z,912
2016-11-18T07:52:27.124Z,1156
2016-11-18T07:53:07.663Z,1344
2016-11-18T07:53:48.193Z,1340
2016-11-18T07:54:28.727Z,1484
2016-11-18T07:55:09.268Z,1408
2016-11-18T07:55:49.858Z,1296
2016-11-18T07:56:30.394Z,1308
2016-11-18T07:57:10.939Z,1464
2016-11-18T07:57:51.479Z,1540
2016-11-18T07:58:32.026Z,1384
2016-11-18T07:59:12.569Z,1420
2016-11-18T07:59:53.105Z,1148
2016-11-18T08:00:33.652Z,836
2016-11-18T08:01:14.191Z,912
2016-11-18T08:01:54.781Z,1052
2016-11-18T08:02:35.350Z,1108
2016-11-18T08:03:15.870Z,1172
2016-11-18T08:03:56.406Z,1000
2016-11-18T08:04:36.945Z,908
2016-11-18T08:05:17.482Z,836
2016-11-18T08:05:58.027Z,812
2016-11-18T08:06:38.565Z,800
2016-11-18T08:07:19.105Z,776
2016-11-18T08:07:59.638Z,808
2016-11-18T08:08:40.178Z,876
2016-11-18T08:09:20.717Z,1180
2016-11-18T08:10:01.255Z,1508
2016-11-18T08:10:41.791Z,1608
2016-11-18T08:11:22.323Z,1732
2016-11-18T08:12:02.849Z,1412
2016-11-18T08:12:43.392Z,1472
2016-11-18T08:13:23.939Z,1244
2016-11-18T08:14:04.473Z,1000
2016-11-18T08:14:45.017Z,1120
2016-11-18T08:15:25.555Z,1156
2016-11-18T08:16:06.089Z,1292
2016-11-18T08:16:46.631Z,1476
2016-11-18T08:17:27.164Z,1556
2016-11-18T08:18:07.703Z,1412
2016-11-18T08:18:48.245Z,1536
2016-11-18T08:19:28.782Z,1668
2016-11-18T08:20:09.332Z,1596
2016-11-18T08:20:49.873Z,1592
2016-11-18T08:21:30.411Z,1524
2016-11-18T08:22:10.953Z,1564
2016-11-18T08:22:51.492Z,1572
2016-11-18T08:23:32.021Z,1396
2016-11-18T08:24:12.562Z,1460
2016-11-18T08:24:53.100Z,1584
2016-11-18T08:25:33.639Z,1356
2016-11-18T08:26:14.168Z,1504
2016-11-18T08:26:54.713Z,1952
2016-11-18T08:27:35.246Z,2172
2016-11-18T08:28:15.785Z,2420
2016-11-18T08:28:56.321Z,2724
2016-11-18T08:29:36.896Z,2680
2016-11-18T08:30:17.424Z,2664
2016-11-18T08:30:57.962Z,2900
2016-11-18T08:31:38.504Z,2896
2016-11-18T08:32:19.047Z,2564
2016-11-18T08:32:59.585Z,2320
2016-11-18T08:33:40.130Z,1916
2016-11-18T08:34:20.670Z,1564
2016-11-18T08:35:01.208Z,1332
2016-11-18T08:35:41.773Z,1300
2016-11-18T08:36:22.306Z,1404
2016-11-18T08:37:02.855Z,1504
2016-11-18T08:37:43.383Z,1436
2016-11-18T08:38:23.921Z,1584
2016-11-18T08:39:04.464Z,1632
2016-11-18T08:39:45.005Z,1528
2016-11-18T08:40:25.542Z,1392
2016-11-18T08:41:06.078Z,1384
2016-11-18T08:41:46.612Z,1336
2016-11-18T08:42:27.150Z,1252
2016-11-18T08:43:07.688Z,1224
2016-11-18T08:43:48.231Z,1220
2016-11-18T08:44:28.768Z,1184
2016-11-18T08:45:09.308Z,1196
2016-11-18T08:45:49.850Z,1292
2016-11-18T08:46:30.382Z,1356
2016-11-18T08:47:10.926Z,1388
2016-11-18T08:47:51.465Z,1480
2016-11-18T08:48:32.012Z,1560
2016-11-18T08:49:12.563Z,1700
2016-11-18T08:49:53.100Z,1940
2016-11-18T08:50:33.641Z,2200
2016-11-18T08:51:14.182Z,2404
2016-11-18T08:51:54.727Z,2892
2016-11-18T08:52:35.277Z,3172
2016-11-18T08:53:15.824Z,3652
2016-11-18T08:53:56.361Z,3776
2016-11-18T08:54:36.904Z,3376
2016-11-18T08:55:17.452Z,3444
2016-11-18T08:55:57.987Z,3376
2016-11-18T08:56:38.542Z,3204
2016-11-18T08:57:19.071Z,2636
2016-11-18T08:57:59.614Z,2192
2016-11-18T08:58:40.148Z,2164
2016-11-18T08:59:20.691Z,2060
2016-11-18T09:00:01.236Z,1900
2016-11-18T09:00:41.781Z,2288
2016-11-18T09:01:22.328Z,2032
2016-11-18T09:02:02.866Z,1896
2016-11-18T09:02:43.410Z,2144
2016-11-18T09:03:23.951Z,2204
2016-11-18T09:04:04.479Z,1852
2016-11-18T09:04:45.018Z,1536
2016-11-18T09:05:25.554Z,1400
2016-11-18T09:06:06.095Z,1500
2016-11-18T09:06:46.639Z,1384
2016-11-18T09:07:27.192Z,1208
2016-11-18T09:08:07.748Z,1260
2016-11-18T09:08:48.288Z,1176
2016-11-18T09:09:28.833Z,1360
2016-11-18T09:10:09.383Z,1448
2016-11-18T09:10:49.925Z,1528
2016-11-18T09:11:30.462Z,1700
2016-11-18T09:12:11.009Z,1608
2016-11-18T09:12:51.550Z,1700
2016-11-18T09:13:32.090Z,1864
2016-11-18T09:14:12.616Z,1972
2016-11-18T09:14:53.188Z,2448
2016-11-18T09:15:33.719Z,3108
2016-11-18T09:16:14.252Z,3444
2016-11-18T09:16:54.797Z,3544
2016-11-18T09:17:35.394Z,3864
2016-11-18T09:18:15.930Z,4344
2016-11-18T09:18:56.464Z,4908
2016-11-18T09:19:37.007Z,5472
2016-11-18T09:20:17.544Z,5812
2016-11-18T09:20:58.081Z,6460
2016-11-18T09:21:38.621Z,6484
2016-11-18T09:22:19.152Z,7180
2016-11-18T09:22:59.698Z,6720
2016-11-18T09:23:40.241Z,7108
2016-11-18T09:24:20.769Z,8532
2016-11-18T09:25:01.305Z,7956
2016-11-18T09:25:41.859Z,8844
2016-11-18T09:26:22.400Z,7756
2016-11-18T09:27:02.940Z,7372
2016-11-18T09:27:43.488Z,7936
2016-11-18T09:28:24.026Z,6060
2016-11-18T09:29:04.576Z,7080
2016-11-18T09:29:45.121Z,3496
2016-11-18T09:30:25.663Z,3564
2016-11-18T09:31:06.198Z,11860
2016-11-18T09:31:46.740Z,2804
2016-11-18T09:32:27.270Z,2648
2016-11-18T09:33:07.816Z,2136
2016-11-18T09:33:48.355Z,1896
2016-11-18T09:34:28.896Z,1648
2016-11-18T09:35:09.438Z,1600
2016-11-18T09:35:49.981Z,1664
2016-11-18T09:36:30.521Z,1708
2016-11-18T09:37:11.061Z,1704
2016-11-18T09:37:51.601Z,1872
2016-11-18T09:38:32.142Z,2268
2016-11-18T09:39:12.687Z,1700
2016-11-18T09:39:53.231Z,2008
2016-11-18T09:40:33.774Z,2112
2016-11-18T09:41:14.321Z,2568
2016-11-18T09:41:54.861Z,2732
2016-11-18T09:42:35.401Z,2788
2016-11-18T09:43:15.940Z,2700
2016-11-18T09:43:56.488Z,2884
2016-11-18T09:44:37.018Z,3692
2016-11-18T09:45:17.555Z,3592
2016-11-18T09:45:58.095Z,3428
2016-11-18T09:46:38.635Z,2860
2016-11-18T09:47:19.179Z,3236
2016-11-18T09:47:59.720Z,3176
2016-11-18T09:48:40.267Z,3036
2016-11-18T09:49:20.808Z,3180
2016-11-18T09:50:01.335Z,3392
2016-11-18T09:50:41.873Z,3088
2016-11-18T09:51:22.408Z,3236
2016-11-18T09:52:02.945Z,3216
2016-11-18T09:52:43.486Z,2904
2016-11-18T09:53:24.013Z,2916
2016-11-18T09:54:04.556Z,3320
2016-11-18T09:54:45.096Z,3356
2016-11-18T09:55:25.638Z,2980
2016-11-18T09:56:06.176Z,3068
2016-11-18T09:56:46.717Z,3188
2016-11-18T09:57:27.257Z,3820
2016-11-18T09:58:07.798Z,4528
2016-11-18T09:58:48.338Z,31968
2016-11-18T09:59:28.879Z,20128
2016-11-18T10:00:09.426Z,7516
2016-11-18T10:00:49.969Z,10024
2016-11-18T10:01:30.513Z,5228
2016-11-18T10:02:11.046Z,11856
2016-11-18T10:02:51.590Z,32160
2016-11-18T10:03:32.132Z,31040
2016-11-18T10:04:12.684Z,26912
2016-11-18T10:04:53.225Z,11400
2016-11-18T10:05:33.765Z,28832
2016-11-18T10:06:14.305Z,32288
2016-11-18T10:06:54.849Z,31616
2016-11-18T10:07:35.388Z,31968
2016-11-18T10:08:15.932Z,32448
2016-11-18T10:08:56.476Z,25536
2016-11-18T10:09:37.024Z,26656
2016-11-18T10:10:17.562Z,30080
2016-11-18T10:10:58.112Z,10532
2016-11-18T10:11:38.655Z,12516
2016-11-18T10:12:19.180Z,9528
2016-11-18T10:12:59.725Z,6896
2016-11-18T10:13:40.262Z,5996
2016-11-18T10:14:20.806Z,5792
2016-11-18T10:15:01.353Z,6956
2016-11-18T10:15:41.899Z,7444
2016-11-18T10:16:22.442Z,7052
2016-11-18T10:17:02.981Z,6568
2016-11-18T10:17:43.519Z,6312
2016-11-18T10:18:24.062Z,5376
2016-11-18T10:19:04.606Z,5908
2016-11-18T10:19:45.148Z,5920
2016-11-18T10:20:25.678Z,5908
2016-11-18T10:21:06.217Z,4644
2016-11-18T10:21:46.761Z,3908
2016-11-18T10:22:27.307Z,3492
2016-11-18T10:23:07.849Z,2972
2016-11-18T10:23:48.398Z,2844
2016-11-18T10:24:28.940Z,2692
2016-11-18T10:25:09.484Z,2384
2016-11-18T10:25:50.026Z,2300